createdAt,value
2022-10-25T00:00:31.578Z,1013.97
2022-10-25T00:01:31.934Z,1013.97
2022-10-25T00:02:31.938Z,1013.99
2022-10-25T00:03:32.085Z,1013.99
2022-10-25T00:04:32.242Z,1014.00
2022-10-25T00:05:32.414Z,1013.99
2022-10-25T00:06:32.581Z,1013.99
2022-10-25T00:07:32.731Z,1014.03
2022-10-25T00:08:32.934Z,1014.02
2022-10-25T00:09:33.092Z,1014.05
2022-10-25T00:10:33.265Z,1013.99
2022-10-25T00:11:33.423Z,1014.01
2022-10-25T00:12:33.642Z,1013.98
2022-10-25T00:13:33.796Z,1013.98
2022-10-25T00:14:33.953Z,1013.96
2022-10-25T00:15:34.113Z,1013.97
2022-10-25T00:16:34.273Z,1013.94
2022-10-25T00:17:34.462Z,1013.90
2022-10-25T00:18:34.674Z,1013.89
2022-10-25T00:19:34.803Z,1013.88
2022-10-25T00:20:34.963Z,1013.91
2022-10-25T00:21:35.123Z,1013.92
2022-10-25T00:22:35.306Z,1013.90
2022-10-25T00:23:35.473Z,1013.88
2022-10-25T00:24:35.632Z,1013.94
2022-10-25T00:25:35.793Z,1013.91
2022-10-25T00:26:35.964Z,1013.93
2022-10-25T00:27:36.145Z,1013.95
2022-10-25T00:28:36.303Z,1013.94
2022-10-25T00:29:36.463Z,1013.97
2022-10-25T00:30:36.636Z,1013.96
2022-10-25T00:31:36.813Z,1013.98
2022-10-25T00:32:36.992Z,1013.98
2022-10-25T00:33:37.154Z,1014.01
2022-10-25T00:34:37.314Z,1013.99
2022-10-25T00:35:37.472Z,1014.01
2022-10-25T00:36:37.636Z,1013.99
2022-10-25T00:37:37.854Z,1014.00
2022-10-25T00:38:37.977Z,1013.99
2022-10-25T00:39:38.133Z,1014.00
2022-10-25T00:40:38.296Z,1014.02
2022-10-25T00:41:38.463Z,1014.00
2022-10-25T00:42:38.662Z,1014.00
2022-10-25T00:43:38.797Z,1014.01
2022-10-25T00:44:38.953Z,1014.04
2022-10-25T00:45:39.120Z,1014.07
2022-10-25T00:46:39.280Z,1014.03
2022-10-25T00:47:39.453Z,1014.00
2022-10-25T00:48:39.614Z,1014.02
2022-10-25T00:49:39.773Z,1013.98
2022-10-25T00:50:39.935Z,1013.95
2022-10-25T00:51:40.085Z,1013.96
2022-10-25T00:52:40.303Z,1013.97
2022-10-25T00:53:40.467Z,1013.99
2022-10-25T00:54:40.632Z,1014.00
2022-10-25T00:55:40.786Z,1013.98
2022-10-25T00:56:40.944Z,1014.00
2022-10-25T00:57:41.113Z,1014.02
2022-10-25T00:58:41.274Z,1014.02
2022-10-25T00:59:41.433Z,1014.01
2022-10-25T01:00:41.604Z,1013.99
2022-10-25T01:01:41.898Z,1014.00
2022-10-25T01:02:42.076Z,1014.01
2022-10-25T01:03:42.116Z,1014.01
2022-10-25T01:04:42.314Z,1014.02
2022-10-25T01:05:42.465Z,1013.99
2022-10-25T01:06:42.625Z,1013.97
2022-10-25T01:07:42.911Z,1014.00
2022-10-25T01:08:42.955Z,1013.98
2022-10-25T01:09:43.113Z,1013.95
2022-10-25T01:10:43.304Z,1013.99
2022-10-25T01:11:43.464Z,1013.94
2022-10-25T01:12:46.367Z,1013.95
2022-10-25T01:13:44.830Z,1013.98
2022-10-25T01:14:44.005Z,1013.99
2022-10-25T01:15:44.167Z,1013.97
2022-10-25T01:16:44.394Z,1013.99
2022-10-25T01:17:44.565Z,1013.95
2022-10-25T01:18:44.731Z,1013.97
2022-10-25T01:19:44.894Z,1013.96
2022-10-25T01:20:45.094Z,1013.95
2022-10-25T01:21:45.255Z,1013.97
2022-10-25T01:22:45.908Z,1013.99
2022-10-25T01:23:45.587Z,1013.97
2022-10-25T01:24:45.746Z,1013.98
2022-10-25T01:25:45.905Z,1014.01
2022-10-25T01:26:46.116Z,1014.01
2022-10-25T01:27:46.333Z,1014.00
2022-10-25T01:28:46.465Z,1014.01
2022-10-25T01:29:46.636Z,1013.99
2022-10-25T01:30:46.874Z,1014.01
2022-10-25T01:31:46.995Z,1013.99
2022-10-25T01:32:47.479Z,1013.98
2022-10-25T01:33:47.336Z,1013.98
2022-10-25T01:34:47.496Z,1013.96
2022-10-25T01:35:47.665Z,1013.96
2022-10-25T01:36:47.848Z,1013.96
2022-10-25T01:37:48.403Z,1013.97
2022-10-25T01:38:48.201Z,1013.97
2022-10-25T01:39:48.356Z,1013.98
2022-10-25T01:40:48.515Z,1013.99
2022-10-25T01:41:48.695Z,1013.98
2022-10-25T01:42:48.864Z,1013.94
2022-10-25T01:43:49.017Z,1013.97
2022-10-25T01:44:49.228Z,1013.96
2022-10-25T01:45:49.379Z,1013.93
2022-10-25T01:46:49.558Z,1013.90
2022-10-25T01:47:49.874Z,1013.91
2022-10-25T01:48:49.930Z,1013.87
2022-10-25T01:49:50.066Z,1013.90
2022-10-25T01:50:50.234Z,1013.93
2022-10-25T01:51:50.438Z,1013.89
2022-10-25T01:52:50.615Z,1013.87
2022-10-25T01:53:50.756Z,1013.86
2022-10-25T01:54:50.945Z,1013.89
2022-10-25T01:55:51.104Z,1013.85
2022-10-25T01:56:51.296Z,1013.89
2022-10-25T01:57:51.456Z,1013.85
2022-10-25T01:58:51.618Z,1013.89
2022-10-25T01:59:51.777Z,1013.92
2022-10-25T02:00:51.970Z,1013.90
2022-10-25T02:01:52.204Z,1013.92
2022-10-25T02:02:52.307Z,1013.92
2022-10-25T02:03:52.484Z,1013.95
2022-10-25T02:04:52.678Z,1013.96
2022-10-25T02:05:52.837Z,1013.95
2022-10-25T02:06:53.017Z,1013.98
2022-10-25T02:07:53.183Z,1013.98
2022-10-25T02:08:53.347Z,1014.01
2022-10-25T02:09:53.562Z,1014.00
2022-10-25T02:10:53.692Z,1014.01
2022-10-25T02:11:53.857Z,1013.99
2022-10-25T02:12:54.017Z,1013.98
2022-10-25T02:13:54.179Z,1014.00
2022-10-25T02:14:54.337Z,1014.03
2022-10-25T02:15:54.498Z,1014.03
2022-10-25T02:16:54.688Z,1014.03
2022-10-25T02:17:54.840Z,1014.00
2022-10-25T02:18:55.041Z,1014.01
2022-10-25T02:19:55.198Z,1013.97
2022-10-25T02:20:55.389Z,1013.97
2022-10-25T02:21:55.557Z,1014.00
2022-10-25T02:22:55.718Z,1013.98
2022-10-25T02:23:55.877Z,1014.01
2022-10-25T02:24:56.052Z,1013.98
2022-10-25T02:25:56.209Z,1013.97
2022-10-25T02:26:56.388Z,1014.00
2022-10-25T02:27:56.586Z,1013.99
2022-10-25T02:28:56.727Z,1014.02
2022-10-25T02:29:56.887Z,1013.96
2022-10-25T02:30:57.060Z,1013.95
2022-10-25T02:31:57.227Z,1013.98
2022-10-25T02:32:57.396Z,1014.01
2022-10-25T02:33:57.558Z,1014.00
2022-10-25T02:34:57.718Z,1013.96
2022-10-25T02:35:57.879Z,1013.96
2022-10-25T02:36:58.084Z,1013.99
2022-10-25T02:37:58.239Z,1014.01
2022-10-25T02:38:58.418Z,1014.03
2022-10-25T02:39:58.585Z,1014.04
2022-10-25T02:40:58.749Z,1013.98
2022-10-25T02:41:58.924Z,1014.00
2022-10-25T02:42:59.085Z,1014.00
2022-10-25T02:43:59.240Z,1013.98
2022-10-25T02:44:59.438Z,1014.02
2022-10-25T02:45:59.601Z,1014.03
2022-10-25T02:46:59.788Z,1013.99
2022-10-25T02:47:59.939Z,1013.95
2022-10-25T02:49:00.138Z,1014.02
2022-10-25T02:50:00.299Z,1014.05
2022-10-25T02:51:00.488Z,1014.03
2022-10-25T02:52:00.668Z,1014.04
2022-10-25T02:53:00.828Z,1014.04
2022-10-25T02:54:00.988Z,1014.06
2022-10-25T02:55:01.150Z,1014.08
2022-10-25T02:56:01.309Z,1014.04
2022-10-25T02:57:01.490Z,1014.08
2022-10-25T02:58:01.649Z,1014.10
2022-10-25T02:59:01.828Z,1014.12
2022-10-25T03:00:02.062Z,1014.08
2022-10-25T03:01:02.272Z,1014.10
2022-10-25T03:02:02.441Z,1014.08
2022-10-25T03:03:02.500Z,1014.10
2022-10-25T03:04:02.659Z,1014.15
2022-10-25T03:05:02.819Z,1014.18
2022-10-25T03:06:02.976Z,1014.18
2022-10-25T03:07:03.151Z,1014.18
2022-10-25T03:08:03.310Z,1014.16
2022-10-25T03:09:03.473Z,1014.21
2022-10-25T03:10:03.632Z,1014.23
2022-10-25T03:11:03.795Z,1014.26
2022-10-25T03:12:03.961Z,1014.22
2022-10-25T03:13:04.129Z,1014.29
2022-10-25T03:14:04.295Z,1014.35
2022-10-25T03:15:04.460Z,1014.35
2022-10-25T03:16:04.609Z,1014.35
2022-10-25T03:17:04.825Z,1014.43
2022-10-25T03:18:04.977Z,1014.38
2022-10-25T03:19:05.171Z,1014.43
2022-10-25T03:20:05.330Z,1014.43
2022-10-25T03:21:05.490Z,1014.40
2022-10-25T03:22:05.666Z,1014.41
2022-10-25T03:23:05.821Z,1014.43
2022-10-25T03:24:05.980Z,1014.40
2022-10-25T03:25:06.211Z,1014.39
2022-10-25T03:26:06.308Z,1014.42
2022-10-25T03:27:06.519Z,1014.43
2022-10-25T03:28:06.670Z,1014.40
2022-10-25T03:29:06.870Z,1014.44
2022-10-25T03:30:07.029Z,1014.48
2022-10-25T03:31:07.189Z,1014.47
2022-10-25T03:32:07.361Z,1014.44
2022-10-25T03:33:07.541Z,1014.45
2022-10-25T03:34:07.692Z,1014.46
2022-10-25T03:35:07.891Z,1014.43
2022-10-25T03:36:08.069Z,1014.45
2022-10-25T03:37:08.231Z,1014.46
2022-10-25T03:38:08.401Z,1014.48
2022-10-25T03:39:08.562Z,1014.46
2022-10-25T03:40:08.722Z,1014.48
2022-10-25T03:41:08.931Z,1014.46
2022-10-25T03:42:09.090Z,1014.47
2022-10-25T03:43:09.276Z,1014.47
2022-10-25T03:44:09.421Z,1014.50
2022-10-25T03:45:09.585Z,1014.52
2022-10-25T03:46:09.757Z,1014.51
2022-10-25T03:47:09.919Z,1014.53
2022-10-25T03:48:10.081Z,1014.55
2022-10-25T03:49:10.249Z,1014.52
2022-10-25T03:50:10.411Z,1014.57
2022-10-25T03:51:10.607Z,1014.59
2022-10-25T03:52:10.730Z,1014.55
2022-10-25T03:53:10.900Z,1014.62
2022-10-25T03:54:11.052Z,1014.63
2022-10-25T03:55:11.212Z,1014.64
2022-10-25T03:56:11.402Z,1014.64
2022-10-25T03:57:11.568Z,1014.65
2022-10-25T03:58:11.722Z,1014.63
2022-10-25T03:59:11.882Z,1014.60
2022-10-25T04:00:12.042Z,1014.60
2022-10-25T04:01:12.307Z,1014.64
2022-10-25T04:02:12.413Z,1014.64
2022-10-25T04:03:12.551Z,1014.64
2022-10-25T04:04:12.702Z,1014.64
2022-10-25T04:05:12.900Z,1014.62
2022-10-25T04:06:13.072Z,1014.67
2022-10-25T04:07:13.233Z,1014.66
2022-10-25T04:08:13.408Z,1014.67
2022-10-25T04:09:13.572Z,1014.71
2022-10-25T04:10:13.733Z,1014.73
2022-10-25T04:11:13.920Z,1014.70
2022-10-25T04:12:14.073Z,1014.72
2022-10-25T04:13:14.267Z,1014.77
2022-10-25T04:14:14.425Z,1014.75
2022-10-25T04:15:14.584Z,1014.75
2022-10-25T04:16:17.053Z,1014.74
2022-10-25T04:17:14.933Z,1014.72
2022-10-25T04:18:15.083Z,1014.71
2022-10-25T04:19:15.283Z,1014.72
2022-10-25T04:20:15.522Z,1014.69
2022-10-25T04:21:15.623Z,1014.70
2022-10-25T04:22:15.784Z,1014.74
2022-10-25T04:23:15.981Z,1014.70
2022-10-25T04:24:16.134Z,1014.75
2022-10-25T04:25:16.333Z,1014.70
2022-10-25T04:26:16.512Z,1014.71
2022-10-25T04:27:16.676Z,1014.75
2022-10-25T04:28:16.844Z,1014.74
2022-10-25T04:29:17.004Z,1014.79
2022-10-25T04:30:17.194Z,1014.77
2022-10-25T04:31:17.363Z,1014.76
2022-10-25T04:32:17.523Z,1014.75
2022-10-25T04:33:17.687Z,1014.78
2022-10-25T04:34:17.847Z,1014.80
2022-10-25T04:35:17.994Z,1014.80
2022-10-25T04:36:18.213Z,1014.84
2022-10-25T04:37:18.424Z,1014.82
2022-10-25T04:38:18.554Z,1014.84
2022-10-25T04:39:18.721Z,1014.82
2022-10-25T04:40:22.501Z,1014.76
2022-10-25T04:41:20.103Z,1014.79
2022-10-25T04:42:19.294Z,1014.79
2022-10-25T04:43:19.439Z,1014.78
2022-10-25T04:44:19.594Z,1014.76
2022-10-25T04:45:19.755Z,1014.78
2022-10-25T04:46:19.966Z,1014.79
2022-10-25T04:47:20.124Z,1014.78
2022-10-25T04:48:20.284Z,1014.76
2022-10-25T04:49:20.454Z,1014.80
2022-10-25T04:50:20.614Z,1014.78
2022-10-25T04:51:20.785Z,1014.75
2022-10-25T04:52:20.946Z,1014.75
2022-10-25T04:53:21.106Z,1014.75
2022-10-25T04:54:21.300Z,1014.78
2022-10-25T04:55:21.454Z,1014.80
2022-10-25T04:56:21.681Z,1014.77
2022-10-25T04:57:21.826Z,1014.77
2022-10-25T04:58:22.015Z,1014.79
2022-10-25T04:59:22.174Z,1014.78
2022-10-25T05:00:22.337Z,1014.80
2022-10-25T05:01:22.572Z,1014.80
2022-10-25T05:02:22.685Z,1014.83
2022-10-25T05:03:22.905Z,1014.80
2022-10-25T05:04:23.025Z,1014.84
2022-10-25T05:05:23.195Z,1014.84
2022-10-25T05:06:23.383Z,1014.88
2022-10-25T05:07:23.545Z,1014.89
2022-10-25T05:08:23.705Z,1014.86
2022-10-25T05:09:23.864Z,1014.81
2022-10-25T05:10:24.066Z,1014.82
2022-10-25T05:11:24.314Z,1014.79
2022-10-25T05:12:24.406Z,1014.83
2022-10-25T05:13:24.585Z,1014.80
2022-10-25T05:14:24.746Z,1014.80
2022-10-25T05:15:24.905Z,1014.80
2022-10-25T05:16:25.097Z,1014.78
2022-10-25T05:17:25.264Z,1014.82
2022-10-25T05:18:25.427Z,1014.84
2022-10-25T05:19:25.586Z,1014.87
2022-10-25T05:20:25.755Z,1014.87
2022-10-25T05:22:26.105Z,1014.91
2022-10-25T05:23:26.257Z,1014.92
2022-10-25T05:24:26.421Z,1014.96
2022-10-25T05:25:26.586Z,1014.96
2022-10-25T05:26:26.779Z,1014.93
2022-10-25T05:27:26.919Z,1014.94
2022-10-25T05:28:27.077Z,1014.95
2022-10-25T05:29:27.245Z,1014.96
2022-10-25T05:30:27.416Z,1014.99
2022-10-25T05:31:27.609Z,1015.02
2022-10-25T05:32:27.766Z,1015.04
2022-10-25T05:33:27.938Z,1015.06
2022-10-25T05:34:28.116Z,1015.07
2022-10-25T05:35:28.296Z,1015.05
2022-10-25T05:36:28.496Z,1015.09
2022-10-25T05:37:28.637Z,1015.08
2022-10-25T05:38:28.827Z,1015.06
2022-10-25T05:39:28.996Z,1015.08
2022-10-25T05:40:29.176Z,1015.12
2022-10-25T05:41:31.888Z,1015.15
2022-10-25T05:42:30.535Z,1015.15
2022-10-25T05:43:29.716Z,1015.16
2022-10-25T05:44:29.905Z,1015.18
2022-10-25T05:45:30.106Z,1015.16
2022-10-25T05:46:30.267Z,1015.22
2022-10-25T05:47:30.417Z,1015.19
2022-10-25T05:48:30.597Z,1015.22
2022-10-25T05:49:30.776Z,1015.23
2022-10-25T05:50:31.003Z,1015.27
2022-10-25T05:51:35.704Z,1015.25
2022-10-25T05:52:32.318Z,1015.26
2022-10-25T05:53:31.498Z,1015.26
2022-10-25T05:54:31.664Z,1015.28
2022-10-25T05:55:31.848Z,1015.25
2022-10-25T05:56:32.047Z,1015.32
2022-10-25T05:57:32.217Z,1015.30
2022-10-25T05:58:32.405Z,1015.28
2022-10-25T05:59:32.547Z,1015.30
2022-10-25T06:00:32.762Z,1015.31
2022-10-25T06:01:33.008Z,1015.35
2022-10-25T06:02:33.141Z,1015.34
2022-10-25T06:03:33.248Z,1015.32
2022-10-25T06:04:33.427Z,1015.34
2022-10-25T06:05:33.587Z,1015.31
2022-10-25T06:06:33.778Z,1015.40
2022-10-25T06:07:33.955Z,1015.42
2022-10-25T06:08:34.141Z,1015.41
2022-10-25T06:09:34.335Z,1015.44
2022-10-25T06:10:34.525Z,1015.48
2022-10-25T06:11:34.743Z,1015.49
2022-10-25T06:12:34.867Z,1015.50
2022-10-25T06:13:35.048Z,1015.54
2022-10-25T06:14:35.238Z,1015.51
2022-10-25T06:15:35.418Z,1015.55
2022-10-25T06:16:35.616Z,1015.56
2022-10-25T06:17:35.790Z,1015.55
2022-10-25T06:18:35.948Z,1015.58
2022-10-25T06:19:36.099Z,1015.57
2022-10-25T06:20:36.325Z,1015.57
2022-10-25T06:21:36.490Z,1015.59
2022-10-25T06:22:36.609Z,1015.62
2022-10-25T06:23:36.770Z,1015.58
2022-10-25T06:24:36.928Z,1015.61
2022-10-25T06:25:37.097Z,1015.59
2022-10-25T06:26:37.268Z,1015.57
2022-10-25T06:27:37.421Z,1015.58
2022-10-25T06:28:37.602Z,1015.60
2022-10-25T06:29:37.778Z,1015.65
2022-10-25T06:30:37.939Z,1015.63
2022-10-25T06:31:38.118Z,1015.67
2022-10-25T06:32:38.277Z,1015.69
2022-10-25T06:33:38.419Z,1015.67
2022-10-25T06:34:38.610Z,1015.66
2022-10-25T06:35:38.779Z,1015.66
2022-10-25T06:36:38.979Z,1015.67
2022-10-25T06:37:39.153Z,1015.63
2022-10-25T06:38:39.339Z,1015.64
2022-10-25T06:39:39.538Z,1015.63
2022-10-25T06:40:39.689Z,1015.63
2022-10-25T06:41:39.909Z,1015.66
2022-10-25T06:42:40.060Z,1015.64
2022-10-25T06:43:40.279Z,1015.63
2022-10-25T06:44:40.419Z,1015.71
2022-10-25T06:45:40.599Z,1015.72
2022-10-25T06:47:11.684Z,1015.76
2022-10-25T06:47:41.959Z,1015.82
2022-10-25T06:48:41.110Z,1015.74
2022-10-25T06:49:41.290Z,1015.76
2022-10-25T06:50:41.470Z,1015.77
2022-10-25T06:51:41.669Z,1015.77
2022-10-25T06:52:41.819Z,1015.79
2022-10-25T06:53:41.999Z,1015.80
2022-10-25T06:54:42.193Z,1015.83
2022-10-25T06:55:42.363Z,1015.87
2022-10-25T06:56:42.561Z,1015.86
2022-10-25T06:57:42.710Z,1015.88
2022-10-25T06:58:42.890Z,1015.89
2022-10-25T06:59:43.071Z,1015.94
2022-10-25T07:00:46.021Z,1015.94
2022-10-25T07:01:44.547Z,1015.93
2022-10-25T07:02:43.629Z,1015.92
2022-10-25T07:03:43.834Z,1015.97
2022-10-25T07:04:44.010Z,1015.93
2022-10-25T07:05:44.140Z,1015.92
2022-10-25T07:06:44.340Z,1015.97
2022-10-25T07:07:44.688Z,1015.99
2022-10-25T07:08:44.661Z,1015.98
2022-10-25T07:09:44.819Z,1015.97
2022-10-25T07:10:45.009Z,1015.99
2022-10-25T07:11:45.211Z,1015.99
2022-10-25T07:12:45.352Z,1016.02
2022-10-25T07:13:45.529Z,1016.03
2022-10-25T07:14:45.713Z,1016.00
2022-10-25T07:15:45.880Z,1015.99
2022-10-25T07:16:46.073Z,1015.99
2022-10-25T07:17:46.766Z,1015.97
2022-10-25T07:18:46.439Z,1015.98
2022-10-25T07:19:46.582Z,1016.03
2022-10-25T07:20:46.771Z,1016.03
2022-10-25T07:21:46.961Z,1016.01
2022-10-25T07:22:47.114Z,1015.99
2022-10-25T07:23:47.335Z,1016.02
2022-10-25T07:24:47.471Z,1016.02
2022-10-25T07:25:47.692Z,1015.98
2022-10-25T07:26:47.851Z,1016.09
2022-10-25T07:27:48.401Z,1016.07
2022-10-25T07:28:48.198Z,1016.07
2022-10-25T07:29:48.379Z,1016.10
2022-10-25T07:30:48.563Z,1016.10
2022-10-25T07:31:48.751Z,1016.08
2022-10-25T07:32:48.910Z,1016.13
2022-10-25T07:33:49.099Z,1016.15
2022-10-25T07:34:49.305Z,1016.17
2022-10-25T07:36:05.891Z,1016.20
2022-10-25T07:36:50.654Z,1016.17
2022-10-25T07:37:50.032Z,1016.17
2022-10-25T07:38:49.962Z,1016.15
2022-10-25T07:39:50.177Z,1016.14
2022-10-25T07:40:50.322Z,1016.19
2022-10-25T07:41:50.522Z,1016.19
2022-10-25T07:42:50.672Z,1016.18
2022-10-25T07:43:50.853Z,1016.18
2022-10-25T07:44:51.045Z,1016.16
2022-10-25T07:45:51.223Z,1016.18
2022-10-25T07:46:51.432Z,1016.16
2022-10-25T07:47:51.600Z,1016.19
2022-10-25T07:48:51.784Z,1016.20
2022-10-25T07:49:51.983Z,1016.20
2022-10-25T07:50:52.133Z,1016.22
2022-10-25T07:51:52.335Z,1016.28
2022-10-25T07:52:52.492Z,1016.28
2022-10-25T07:53:52.654Z,1016.26
2022-10-25T07:54:52.804Z,1016.29
2022-10-25T07:55:52.992Z,1016.23
2022-10-25T07:56:53.208Z,1016.27
2022-10-25T07:57:53.369Z,1016.27
2022-10-25T07:58:53.504Z,1016.26
2022-10-25T07:59:53.685Z,1016.21
2022-10-25T08:00:53.882Z,1016.22
2022-10-25T08:01:54.075Z,1016.22
2022-10-25T08:02:54.228Z,1016.25
2022-10-25T08:03:54.390Z,1016.25
2022-10-25T08:04:54.577Z,1016.26
2022-10-25T08:05:54.756Z,1016.20
2022-10-25T08:06:54.954Z,1016.20
2022-10-25T08:07:55.101Z,1016.27
2022-10-25T08:08:55.318Z,1016.27
2022-10-25T08:09:55.491Z,1016.26
2022-10-25T08:10:55.638Z,1016.27
2022-10-25T08:11:55.852Z,1016.26
2022-10-25T08:12:55.993Z,1016.23
2022-10-25T08:13:56.172Z,1016.25
2022-10-25T08:14:56.356Z,1016.26
2022-10-25T08:15:56.539Z,1016.27
2022-10-25T08:16:56.727Z,1016.26
2022-10-25T08:17:56.888Z,1016.26
2022-10-25T08:18:57.067Z,1016.26
2022-10-25T08:19:57.246Z,1016.28
2022-10-25T08:21:02.481Z,1016.28
2022-10-25T08:21:58.608Z,1016.34
2022-10-25T08:22:57.816Z,1016.27
2022-10-25T08:23:57.966Z,1016.31
2022-10-25T08:24:58.167Z,1016.32
2022-10-25T08:25:58.336Z,1016.30
2022-10-25T08:26:58.538Z,1016.32
2022-10-25T08:27:58.686Z,1016.33
2022-10-25T08:28:58.845Z,1016.33
2022-10-25T08:29:59.028Z,1016.34
2022-10-25T08:30:59.226Z,1016.33
2022-10-25T08:31:59.410Z,1016.29
2022-10-25T08:32:59.595Z,1016.35
2022-10-25T08:33:59.765Z,1016.39
2022-10-25T08:34:59.916Z,1016.36
2022-10-25T08:36:00.067Z,1016.36
2022-10-25T08:37:00.269Z,1016.34
2022-10-25T08:38:00.427Z,1016.34
2022-10-25T08:39:00.576Z,1016.37
2022-10-25T08:40:00.736Z,1016.35
2022-10-25T08:41:00.935Z,1016.38
2022-10-25T08:42:01.090Z,1016.34
2022-10-25T08:43:01.237Z,1016.34
2022-10-25T08:44:01.430Z,1016.33
2022-10-25T08:45:01.603Z,1016.24
2022-10-25T08:46:01.797Z,1016.35
2022-10-25T08:47:01.987Z,1016.36
2022-10-25T08:48:02.137Z,1016.42
2022-10-25T08:49:02.318Z,1016.39
2022-10-25T08:50:02.488Z,1016.38
2022-10-25T08:51:02.676Z,1016.40
2022-10-25T08:52:02.877Z,1016.40
2022-10-25T08:53:03.035Z,1016.39
2022-10-25T08:54:03.214Z,1016.42
2022-10-25T08:55:05.691Z,1016.44
2022-10-25T08:56:15.985Z,1016.43
2022-10-25T08:57:15.116Z,1016.44
2022-10-25T08:58:04.889Z,1016.45
2022-10-25T08:59:04.038Z,1016.49
2022-10-25T09:00:04.239Z,1016.43
2022-10-25T09:01:04.515Z,1016.47
2022-10-25T09:02:04.696Z,1016.43
2022-10-25T09:03:04.752Z,1016.43
2022-10-25T09:04:04.920Z,1016.40
2022-10-25T09:05:05.100Z,1016.40
2022-10-25T09:06:05.268Z,1016.41
2022-10-25T09:07:05.448Z,1016.40
2022-10-25T09:08:05.589Z,1016.36
2022-10-25T09:09:05.764Z,1016.32
2022-10-25T09:10:05.929Z,1016.40
2022-10-25T09:11:06.108Z,1016.32
2022-10-25T09:12:06.311Z,1016.34
2022-10-25T09:13:10.503Z,1016.30
2022-10-25T09:14:06.650Z,1016.37
2022-10-25T09:15:06.790Z,1016.35
2022-10-25T09:16:06.983Z,1016.40
2022-10-25T09:17:07.171Z,1016.37
2022-10-25T09:18:07.351Z,1016.38
2022-10-25T09:19:07.528Z,1016.38
2022-10-25T09:20:07.790Z,1016.39
2022-10-25T09:21:13.415Z,1016.41
2022-10-25T09:22:09.070Z,1016.43
2022-10-25T09:23:08.323Z,1016.45
2022-10-25T09:24:08.422Z,1016.37
2022-10-25T09:25:08.618Z,1016.41
2022-10-25T09:26:08.773Z,1016.43
2022-10-25T09:27:08.962Z,1016.43
2022-10-25T09:28:09.140Z,1016.41
2022-10-25T09:29:09.289Z,1016.47
2022-10-25T09:30:09.443Z,1016.50
2022-10-25T09:31:09.593Z,1016.53
2022-10-25T09:32:09.810Z,1016.58
2022-10-25T09:33:10.013Z,1016.58
2022-10-25T09:34:10.153Z,1016.64
2022-10-25T09:35:10.349Z,1016.62
2022-10-25T09:36:10.524Z,1016.57
2022-10-25T09:37:10.713Z,1016.59
2022-10-25T09:38:10.884Z,1016.55
2022-10-25T09:39:14.939Z,1016.60
2022-10-25T09:40:12.213Z,1016.56
2022-10-25T09:41:11.403Z,1016.63
2022-10-25T09:42:11.585Z,1016.64
2022-10-25T09:43:11.748Z,1016.64
2022-10-25T09:44:11.964Z,1016.72
2022-10-25T09:45:12.104Z,1016.71
2022-10-25T09:46:12.298Z,1016.74
2022-10-25T09:47:12.495Z,1016.71
2022-10-25T09:48:12.634Z,1016.70
2022-10-25T09:49:12.814Z,1016.75
2022-10-25T09:50:12.996Z,1016.80
2022-10-25T09:51:13.178Z,1016.78
2022-10-25T09:52:13.382Z,1016.83
2022-10-25T09:53:13.515Z,1016.84
2022-10-25T09:54:13.692Z,1016.85
2022-10-25T09:55:13.869Z,1016.85
2022-10-25T09:56:14.096Z,1016.89
2022-10-25T09:57:14.247Z,1016.85
2022-10-25T09:58:14.395Z,1016.85
2022-10-25T09:59:14.575Z,1016.89
2022-10-25T10:00:14.781Z,1016.88
2022-10-25T10:01:15.085Z,1016.86
2022-10-25T10:02:15.193Z,1016.87
2022-10-25T10:03:15.288Z,1016.83
2022-10-25T10:04:15.474Z,1016.84
2022-10-25T10:05:15.669Z,1016.85
2022-10-25T10:06:15.847Z,1016.86
2022-10-25T10:07:15.986Z,1016.89
2022-10-25T10:08:16.170Z,1016.94
2022-10-25T10:09:16.346Z,1016.82
2022-10-25T10:10:16.540Z,1016.82
2022-10-25T10:11:16.725Z,1016.88
2022-10-25T10:12:16.915Z,1016.94
2022-10-25T10:13:17.059Z,1016.92
2022-10-25T10:14:17.247Z,1016.94
2022-10-25T10:15:17.427Z,1016.95
2022-10-25T10:16:17.627Z,1016.93
2022-10-25T10:17:17.760Z,1016.93
2022-10-25T10:18:17.950Z,1016.95
2022-10-25T10:19:18.107Z,1016.99
2022-10-25T10:20:18.285Z,1016.98
2022-10-25T10:21:18.487Z,1016.92
2022-10-25T10:22:18.637Z,1016.89
2022-10-25T10:23:18.828Z,1016.99
2022-10-25T10:24:18.990Z,1016.98
2022-10-25T10:25:19.171Z,1016.96
2022-10-25T10:26:19.388Z,1016.95
2022-10-25T10:27:19.547Z,1016.97
2022-10-25T10:28:19.680Z,1016.96
2022-10-25T10:29:19.867Z,1016.99
2022-10-25T10:30:20.048Z,1017.03
2022-10-25T10:31:20.248Z,1017.01
2022-10-25T10:32:20.425Z,1017.05
2022-10-25T10:33:20.590Z,1017.03
2022-10-25T10:34:20.790Z,1017.02
2022-10-25T10:35:20.960Z,1017.01
2022-10-25T10:36:21.169Z,1017.07
2022-10-25T10:37:21.308Z,1017.05
2022-10-25T10:38:21.500Z,1017.07
2022-10-25T10:39:21.682Z,1017.09
2022-10-25T10:40:21.846Z,1017.07
2022-10-25T10:41:22.042Z,1017.07
2022-10-25T10:42:22.248Z,1017.04
2022-10-25T10:43:22.371Z,1017.04
2022-10-25T10:44:22.558Z,1017.08
2022-10-25T10:45:22.731Z,1017.06
2022-10-25T10:46:22.920Z,1017.08
2022-10-25T10:47:23.101Z,1017.09
2022-10-25T10:48:23.259Z,1017.05
2022-10-25T10:49:23.440Z,1017.09
2022-10-25T10:50:23.620Z,1017.10
2022-10-25T10:51:43.132Z,1017.04
2022-10-25T10:52:24.962Z,1017.07
2022-10-25T10:53:24.151Z,1017.07
2022-10-25T10:54:24.384Z,1017.07
2022-10-25T10:55:24.521Z,1017.07
2022-10-25T10:56:24.740Z,1017.02
2022-10-25T10:57:24.873Z,1017.05
2022-10-25T10:58:25.050Z,1017.07
2022-10-25T10:59:25.238Z,1017.05
2022-10-25T11:00:25.426Z,1017.09
2022-10-25T11:01:25.675Z,1017.07
2022-10-25T11:02:26.036Z,1017.07
2022-10-25T11:03:25.951Z,1017.09
2022-10-25T11:04:26.380Z,1017.11
2022-10-25T11:05:26.253Z,1017.05
2022-10-25T11:06:26.465Z,1017.06
2022-10-25T11:07:26.655Z,1017.09
2022-10-25T11:08:26.829Z,1017.04
2022-10-25T11:09:26.961Z,1017.02
2022-10-25T11:10:27.145Z,1017.05
2022-10-25T11:11:27.362Z,1017.03
2022-10-25T11:12:27.501Z,1017.01
2022-10-25T11:13:27.672Z,1017.00
2022-10-25T11:14:27.862Z,1016.99
2022-10-25T11:15:28.044Z,1016.96
2022-10-25T11:16:28.252Z,1016.93
2022-10-25T11:17:28.393Z,1016.95
2022-10-25T11:18:28.576Z,1016.98
2022-10-25T11:19:28.761Z,1016.94
2022-10-25T11:20:28.941Z,1016.98
2022-10-25T11:21:29.143Z,1016.93
2022-10-25T11:22:32.190Z,1016.97
2022-10-25T11:23:29.477Z,1016.94
2022-10-25T11:24:29.663Z,1016.92
2022-10-25T11:25:29.831Z,1016.94
2022-10-25T11:26:29.974Z,1016.97
2022-10-25T11:27:33.034Z,1016.89
2022-10-25T11:28:31.350Z,1016.92
2022-10-25T11:29:30.534Z,1016.96
2022-10-25T11:30:30.733Z,1016.95
2022-10-25T11:31:30.874Z,1016.92
2022-10-25T11:32:31.090Z,1016.93
2022-10-25T11:33:31.244Z,1016.97
2022-10-25T11:34:31.435Z,1016.96
2022-10-25T11:35:31.614Z,1016.96
2022-10-25T11:36:31.815Z,1016.96
2022-10-25T11:37:31.989Z,1016.95
2022-10-25T11:38:32.173Z,1016.95
2022-10-25T11:39:32.363Z,1016.92
2022-10-25T11:40:32.548Z,1016.83
2022-10-25T11:41:32.738Z,1016.87
2022-10-25T11:42:32.899Z,1016.91
2022-10-25T11:43:33.075Z,1017.00
2022-10-25T11:44:33.257Z,1016.91
2022-10-25T11:45:33.435Z,1016.92
2022-10-25T11:46:33.635Z,1016.90
2022-10-25T11:47:33.809Z,1016.95
2022-10-25T11:48:33.987Z,1016.92
2022-10-25T11:49:34.167Z,1016.99
2022-10-25T11:50:34.377Z,1016.92
2022-10-25T11:51:34.527Z,1016.98
2022-10-25T11:52:34.677Z,1016.97
2022-10-25T11:53:34.858Z,1016.97
2022-10-25T11:54:35.037Z,1016.99
2022-10-25T11:55:35.221Z,1016.99
2022-10-25T11:56:35.419Z,1016.95
2022-10-25T11:57:35.617Z,1017.00
2022-10-25T11:58:35.738Z,1017.00
2022-10-25T11:59:35.917Z,1017.01
2022-10-25T12:00:36.100Z,1017.06
2022-10-25T12:01:36.342Z,1017.02
2022-10-25T12:02:36.555Z,1017.02
2022-10-25T12:03:36.620Z,1017.06
2022-10-25T12:04:37.993Z,1017.01
2022-10-25T12:05:36.988Z,1017.06
2022-10-25T12:06:37.148Z,1017.06
2022-10-25T12:07:37.299Z,1017.07
2022-10-25T12:08:37.485Z,1017.07